Time;durP1;ratioP1;P1;durP2;ratioP2;P2;SDS_P1;SDS_P2;PMS_P1;PMS_P2;Temp;Humidity;BMP_temperature;BMP_pressure;BME280_temperature;BME280_humidity;BME280_pressure;Samples;Min_cycle;Max_cycle;Signal;HPM_P1;HPM_P2
2021/07/28 00:01:22;;;;;;;25.00;8.82;;;;;;;17.90;61.42;100047.56;5142304;28;20031;-78
2021/07/28 00:03:49;;;;;;;19.13;8.05;;;;;;;18.01;61.62;100067.44;5131888;28;20087;-79
2021/07/28 00:06:22;;;;;;;15.63;7.85;;;;;;;17.89;61.51;100045.00;5130474;28;20035;-80
2021/07/28 00:08:49;;;;;;;18.40;8.05;;;;;;;17.77;61.44;100036.59;5131964;28;20492;-77
2021/07/28 00:11:16;;;;;;;17.00;8.68;;;;;;;17.86;61.25;100063.53;5079088;28;20039;-78
2021/07/28 00:13:44;;;;;;;15.05;8.25;;;;;;;17.83;61.17;100066.25;5131674;28;20515;-78
2021/07/28 00:16:14;;;;;;;14.50;8.40;;;;;;;17.79;61.30;100057.63;5131940;28;20039;-77
2021/07/28 00:24:01;;;;;;;16.02;8.35;;;;;;;17.59;61.89;100051.28;5148319;27;20058;-77
2021/07/28 00:26:29;;;;;;;13.20;8.05;;;;;;;17.56;61.74;100054.00;5126624;28;20055;-79
2021/07/28 00:28:57;;;;;;;13.27;8.55;;;;;;;17.59;62.43;100050.41;5113842;28;20034;-77
2021/07/28 00:31:23;;;;;;;13.82;7.88;;;;;;;17.58;62.34;100057.44;5130385;28;20031;-79
2021/07/28 00:33:49;;;;;;;17.65;8.02;;;;;;;17.50;62.28;100054.22;5131997;27;20070;-79
2021/07/28 00:36:15;;;;;;;13.60;7.45;;;;;;;17.48;62.42;100053.41;5132233;27;20050;-76
2021/07/28 00:38:41;;;;;;;9.85;8.07;;;;;;;17.48;62.33;100060.44;5132506;28;20031;-77
2021/07/28 00:41:06;;;;;;;14.00;8.20;;;;;;;17.45;62.06;100051.75;5130872;28;20049;-76
2021/07/28 00:43:32;;;;;;;16.85;8.65;;;;;;;17.56;62.48;100056.66;5130442;28;20504;-76
2021/07/28 00:45:58;;;;;;;11.63;7.85;;;;;;;17.50;62.38;100034.94;5131765;28;20045;-75
2021/07/28 00:48:24;;;;;;;10.73;7.85;;;;;;;17.58;62.69;100051.31;5111082;28;20104;-77
2021/07/28 00:50:50;;;;;;;15.98;8.50;;;;;;;17.57;62.27;100046.97;5113127;28;20062;-77
2021/07/28 00:53:19;;;;;;;12.77;8.35;;;;;;;17.45;62.47;100025.44;5130383;27;20043;-79
2021/07/28 00:55:47;;;;;;;20.27;8.68;;;;;;;17.54;62.48;100039.19;5115545;28;20471;-77
2021/07/28 00:58:14;;;;;;;26.50;12.45;;;;;;;17.44;62.29;100026.34;5115074;28;20035;-78
2021/07/28 01:00:40;;;;;;;26.67;12.02;;;;;;;17.49;62.82;100030.59;5116259;28;20047;-77
2021/07/28 01:03:05;;;;;;;18.35;10.75;;;;;;;17.39;62.95;100027.41;5114930;28;20039;-77
2021/07/28 01:05:31;;;;;;;16.63;8.63;;;;;;;17.38;62.89;100038.84;5101120;28;20043;-78
2021/07/28 01:07:57;;;;;;;15.05;8.55;;;;;;;17.24;62.94;100020.91;5124194;28;20072;-79
2021/07/28 01:10:24;;;;;;;12.80;8.25;;;;;;;17.20;62.94;100021.91;5117136;28;20072;-77
2021/07/28 01:12:53;;;;;;;18.75;9.02;;;;;;;17.15;63.56;100017.66;5113191;28;20046;-77
2021/07/28 01:16:01;;;;;;;12.75;7.97;;;;;;;17.24;63.64;100039.31;5114165;28;20067;-77
2021/07/28 01:18:15;;;;;;;10.02;7.75;;;;;;;17.23;63.79;100032.31;5109627;27;20058;-79
2021/07/28 01:20:47;;;;;;;13.23;9.70;;;;;;;17.21;63.98;100031.50;5132969;27;20050;-78
2021/07/28 01:23:12;;;;;;;;;;;;;;;17.20;64.03;100024.53;5135217;27;20035;-79
2021/07/28 01:25:45;;;;;;;14.70;8.17;;;;;;;17.16;64.01;100019.38;5108173;27;19966;-77
2021/07/28 01:28:11;;;;;;;16.75;9.25;;;;;;;17.04;63.95;100004.00;5134463;27;20268;-79
2021/07/28 01:30:38;;;;;;;16.27;9.23;;;;;;;17.00;64.34;100000.59;5115794;27;20043;-77
2021/07/28 01:33:05;;;;;;;12.75;8.50;;;;;;;17.12;64.75;100023.00;5101311;27;20130;-81
2021/07/28 01:35:34;;;;;;;14.45;8.68;;;;;;;17.08;64.56;100018.78;5100324;27;20031;-81
2021/07/28 01:38:00;;;;;;;14.00;8.30;;;;;;;17.01;65.00;100015.47;5134785;27;20047;-78
2021/07/28 01:40:26;;;;;;;16.83;8.98;;;;;;;16.95;65.12;100013.06;5134880;27;20035;-78
2021/07/28 01:42:52;;;;;;;13.77;8.98;;;;;;;17.00;64.94;100019.00;5116555;27;20130;-76
2021/07/28 01:45:17;;;;;;;12.85;8.13;;;;;;;17.00;65.25;100024.25;5133838;27;20050;-79
2021/07/28 01:47:44;;;;;;;14.15;8.40;;;;;;;17.01;65.13;100025.13;5142595;27;20038;-76
2021/07/28 01:50:11;;;;;;;15.07;8.63;;;;;;;16.99;65.35;100009.41;5119208;27;20050;-76
2021/07/28 01:52:39;;;;;;;14.55;8.80;;;;;;;16.97;65.37;100003.34;5136631;27;20415;-79
2021/07/28 01:55:09;;;;;;;10.98;8.40;;;;;;;17.00;65.37;100002.38;5119420;27;20046;-78
2021/07/28 01:57:35;;;;;;;16.52;9.43;;;;;;;16.97;65.44;99995.47;5154772;27;20039;-79
2021/07/28 02:00:00;;;;;;;16.00;9.30;;;;;;;17.06;65.00;99999.56;5154721;27;20046;-76
2021/07/28 02:02:35;;;;;;;16.92;11.10;;;;;;;17.06;65.24;100011.84;5154329;27;20066;-79
2021/07/28 02:05:03;;;;;;;18.40;11.10;;;;;;;16.97;65.49;99992.84;5136021;27;20043;-80
2021/07/28 02:07:29;;;;;;;15.77;9.93;;;;;;;17.06;66.13;99996.06;5136839;27;20026;-78
2021/07/28 02:09:55;;;;;;;18.88;11.07;;;;;;;17.20;65.94;100007.00;5155501;27;20165;-78
2021/07/28 02:12:21;;;;;;;16.48;12.20;;;;;;;17.31;65.90;99993.50;5120366;27;20065;-78
2021/07/28 02:14:49;;;;;;;20.40;13.07;;;;;;;17.27;65.24;99984.81;5135345;27;20046;-80
2021/07/28 02:17:16;;;;;;;19.05;11.98;;;;;;;17.31;65.78;99989.09;5137736;27;20083;-77
2021/07/28 02:19:42;;;;;;;17.88;10.88;;;;;;;17.33;65.82;99981.13;5118802;27;20035;-77
2021/07/28 02:22:08;;;;;;;19.77;10.63;;;;;;;17.40;65.82;99984.44;5154390;27;20035;-77
2021/07/28 02:24:34;;;;;;;24.95;11.95;;;;;;;17.38;65.58;99968.69;5154980;27;20423;-76
2021/07/28 02:27:00;;;;;;;15.32;9.95;;;;;;;17.56;65.70;99988.25;5115999;27;20059;-77
2021/07/28 02:29:26;;;;;;;17.65;9.57;;;;;;;17.60;65.38;99981.97;5122654;27;20046;-76
2021/07/28 02:31:52;;;;;;;21.85;10.05;;;;;;;17.60;65.42;99970.56;5139108;27;20094;-77
2021/07/28 02:34:18;;;;;;;13.68;8.52;;;;;;;17.70;65.46;99971.97;5133886;27;20047;-78
2021/07/28 02:36:43;;;;;;;13.93;9.73;;;;;;;17.82;65.01;99985.59;5132735;27;20035;-77
2021/07/28 02:39:10;;;;;;;17.95;9.05;;;;;;;17.87;65.04;99984.53;5132296;27;20154;-78
2021/07/28 02:41:36;;;;;;;13.88;9.05;;;;;;;17.90;64.76;99978.28;5114011;27;20362;-78
2021/07/28 02:44:01;;;;;;;18.33;9.40;;;;;;;18.09;64.76;99988.16;5114554;27;20103;-76
2021/07/28 02:46:27;;;;;;;21.88;12.93;;;;;;;18.15;64.65;99982.69;5114090;27;20076;-78
2021/07/28 02:48:53;;;;;;;19.85;11.18;;;;;;;18.20;64.38;99988.63;5128243;27;20118;-77
2021/07/28 02:51:19;;;;;;;16.15;9.18;;;;;;;18.34;64.58;99996.00;5114083;27;20486;-78
2021/07/28 02:53:45;;;;;;;14.77;8.43;;;;;;;18.46;64.29;99994.66;5131712;27;20043;-77
2021/07/28 02:56:11;;;;;;;17.23;9.57;;;;;;;18.54;64.04;99983.84;5097130;27;20424;-76
2021/07/28 02:58:37;;;;;;;16.48;10.43;;;;;;;18.66;63.65;99976.28;5132698;27;20035;-77
2021/07/28 03:01:02;;;;;;;19.88;11.23;;;;;;;18.72;63.65;99966.44;5132503;27;20046;-78
2021/07/28 03:03:28;;;;;;;22.85;11.73;;;;;;;18.85;63.19;99959.78;5114413;27;20039;-79
2021/07/28 03:05:54;;;;;;;27.67;12.02;;;;;;;19.04;62.92;99946.69;5113500;27;20053;-77
2021/07/28 03:08:20;;;;;;;21.08;11.07;;;;;;;19.25;62.35;99965.19;5097499;27;20100;-78
2021/07/28 03:10:46;;;;;;;19.85;11.27;;;;;;;19.29;62.37;99960.66;5097076;27;20057;-77
2021/07/28 03:13:12;;;;;;;19.23;10.75;;;;;;;19.39;62.29;99959.31;5097231;27;20045;-77
2021/07/28 03:15:38;;;;;;;19.55;11.30;;;;;;;19.50;62.13;99957.09;5113032;27;20042;-77
2021/07/28 03:18:04;;;;;;;25.15;12.23;;;;;;;19.60;61.87;99957.53;5122135;27;20118;-77
2021/07/28 03:20:29;;;;;;;19.88;11.60;;;;;;;19.80;61.66;99959.28;5148640;27;20056;-77
2021/07/28 03:22:55;;;;;;;22.33;12.32;;;;;;;19.88;61.23;99952.84;5154260;27;20062;-81
2021/07/28 03:25:21;;;;;;;27.50;12.77;;;;;;;19.89;60.79;99944.00;5146005;27;20515;-77
2021/07/28 03:27:47;;;;;;;30.52;13.32;;;;;;;19.97;60.52;99953.28;5131684;27;20126;-78
2021/07/28 03:30:13;;;;;;;22.88;13.20;;;;;;;20.04;60.84;99945.91;5114467;28;20139;-80
2021/07/28 03:32:39;;;;;;;23.50;15.95;;;;;;;20.22;60.30;99946.00;5132293;27;20531;-79
2021/07/28 03:35:05;;;;;;;24.00;14.30;;;;;;;20.25;60.27;99952.00;5132845;27;20420;-78
2021/07/28 03:37:31;;;;;;;25.75;13.45;;;;;;;20.17;59.68;99938.28;5113246;27;20046;-77
2021/07/28 03:40:01;;;;;;;26.52;14.07;;;;;;;20.16;59.50;99945.38;5097034;28;20043;-76
2021/07/28 03:42:31;;;;;;;23.27;13.82;;;;;;;20.24;59.75;99937.09;5134055;28;20045;-78
2021/07/28 03:45:00;;;;;;;26.05;15.70;;;;;;;20.51;59.28;99943.75;5132105;28;20046;-78
2021/07/28 03:47:26;;;;;;;24.60;14.90;;;;;;;20.64;58.88;99941.38;5120067;27;20035;-75
2021/07/28 03:49:52;;;;;;;26.90;15.32;;;;;;;20.76;58.64;99946.09;5134692;27;20046;-78
2021/07/28 03:52:19;;;;;;;22.55;14.07;;;;;;;20.96;58.17;99942.47;5133886;27;20047;-77
2021/07/28 03:54:45;;;;;;;31.40;14.13;;;;;;;21.07;57.34;99928.72;5118005;27;20133;-79
2021/07/28 03:57:14;;;;;;;33.40;13.43;;;;;;;21.16;57.22;99932.66;5155848;27;20034;-77
2021/07/28 03:59:40;;;;;;;32.25;13.93;;;;;;;21.29;57.04;99924.97;5138277;27;20043;-79
2021/07/28 04:02:06;;;;;;;28.05;15.00;;;;;;;21.49;57.08;99924.78;5152629;27;20041;-77
2021/07/28 04:04:32;;;;;;;35.17;14.13;;;;;;;21.87;56.38;99936.09;5134241;27;20081;-77
2021/07/28 04:06:58;;;;;;;26.98;12.52;;;;;;;22.22;55.78;99936.81;5155657;27;20038;-76
2021/07/28 04:09:25;;;;;;;21.52;13.13;;;;;;;22.53;55.07;99936.91;5157645;27;20419;-77
2021/07/28 04:11:51;;;;;;;22.90;12.70;;;;;;;22.68;54.49;99937.84;5134368;27;20035;-77
2021/07/28 04:14:17;;;;;;;27.90;13.55;;;;;;;23.08;54.09;99926.72;5133732;27;20126;-78
2021/07/28 04:16:43;;;;;;;29.33;14.15;;;;;;;23.45;53.07;99927.19;5152412;27;20523;-79
2021/07/28 04:19:09;;;;;;;26.15;14.38;;;;;;;23.64;52.01;99911.00;5129985;27;20042;-78
2021/07/28 04:21:35;;;;;;;32.88;17.00;;;;;;;23.92;51.16;99911.94;5152429;27;20053;-77
2021/07/28 04:24:01;;;;;;;34.15;16.58;;;;;;;24.38;50.83;99915.28;5102289;27;20043;-78
2021/07/28 04:26:26;;;;;;;28.13;12.55;;;;;;;24.76;50.06;99907.44;5145358;27;20061;-76
2021/07/28 04:28:52;;;;;;;24.45;12.30;;;;;;;24.90;49.62;99905.69;5105331;27;20045;-77
2021/07/28 04:31:18;;;;;;;20.25;12.45;;;;;;;25.07;49.09;99910.72;5101281;27;20091;-78
2021/07/28 04:33:44;;;;;;;23.08;13.05;;;;;;;25.15;48.46;99891.56;5120866;27;20039;-79
2021/07/28 04:36:10;;;;;;;25.73;13.38;;;;;;;25.29;47.96;99921.69;5149692;27;20051;-78
2021/07/28 04:38:35;;;;;;;22.30;11.93;;;;;;;25.39;47.69;99909.47;5141313;27;20039;-78
2021/07/28 04:41:01;;;;;;;17.92;10.85;;;;;;;25.47;46.90;99891.19;5118638;27;20043;-77
2021/07/28 04:43:29;;;;;;;15.65;11.00;;;;;;;25.60;47.02;99914.28;5117601;27;20388;-79
2021/07/28 04:46:02;;;;;;;20.48;9.70;;;;;;;25.77;46.97;99902.44;5117510;27;20035;-78
2021/07/28 04:48:30;;;;;;;14.55;9.07;;;;;;;26.06;46.17;99907.47;5113182;27;20031;-77
2021/07/28 04:50:57;;;;;;;15.20;9.80;;;;;;;26.24;45.41;99911.53;5135619;27;20138;-78
2021/07/28 04:53:28;;;;;;;16.30;9.25;;;;;;;26.48;45.48;99891.16;5136702;27;20039;-77
2021/07/28 04:55:58;;;;;;;17.13;9.13;;;;;;;26.91;45.10;99898.63;5134811;27;20419;-76
2021/07/28 04:58:24;;;;;;;15.20;10.00;;;;;;;27.17;44.15;99904.63;5135142;27;20129;-79
2021/07/28 05:00:51;;;;;;;16.33;9.63;;;;;;;27.32;43.55;99901.75;5118760;27;20547;-77
2021/07/28 05:03:18;;;;;;;11.70;8.57;;;;;;;27.32;43.52;99891.91;5135666;27;20036;-77
2021/07/28 05:05:44;;;;;;;12.95;8.43;;;;;;;27.05;43.56;99877.06;5135035;27;20138;-77
2021/07/28 05:08:10;;;;;;;19.77;8.73;;;;;;;26.85;43.61;99894.63;5100712;27;20027;-79
2021/07/28 05:10:37;;;;;;;12.55;8.93;;;;;;;26.41;43.21;99877.44;5099535;27;20492;-77
2021/07/28 05:13:03;;;;;;;15.05;10.68;;;;;;;26.22;44.19;99901.91;5134802;27;20092;-79
2021/07/28 05:15:29;;;;;;;16.95;9.80;;;;;;;25.90;44.67;99931.75;5117217;27;20465;-77
2021/07/28 05:17:55;;;;;;;12.60;8.95;;;;;;;25.43;45.91;99953.59;5105855;27;20034;-79
2021/07/28 05:20:21;;;;;;;15.05;8.75;;;;;;;25.02;46.82;99920.81;5155975;27;20400;-77
2021/07/28 05:22:51;;;;;;;22.00;11.65;;;;;;;24.69;47.46;99943.38;5155538;27;20034;-78
2021/07/28 05:25:17;;;;;;;14.80;9.27;;;;;;;24.44;48.16;99944.97;5150108;27;20058;-78
2021/07/28 05:27:43;;;;;;;17.00;8.75;;;;;;;24.20;47.99;99942.06;5115245;27;20051;-76
2021/07/28 05:30:10;;;;;;;11.98;8.75;;;;;;;24.03;49.03;99945.81;5134777;27;20487;-78
2021/07/28 05:32:36;;;;;;;19.95;9.60;;;;;;;23.86;48.71;99946.84;5120269;27;20130;-79
2021/07/28 05:35:02;;;;;;;13.85;9.40;;;;;;;23.83;49.40;99953.22;5129258;27;20043;-79
2021/07/28 05:37:28;;;;;;;14.77;9.48;;;;;;;23.78;49.16;99955.28;5135297;27;20039;-79
2021/07/28 05:39:55;;;;;;;18.00;10.27;;;;;;;23.77;49.78;99956.25;5099393;27;20130;-77
2021/07/28 05:42:21;;;;;;;20.02;11.13;;;;;;;23.74;49.79;99948.47;5116487;27;20547;-79
2021/07/28 05:44:47;;;;;;;17.77;10.40;;;;;;;23.75;49.80;99945.69;5082309;27;20122;-77
2021/07/28 05:47:13;;;;;;;21.35;9.93;;;;;;;23.75;49.91;99952.81;5082650;27;20039;-76
2021/07/28 05:49:39;;;;;;;17.55;10.25;;;;;;;23.68;50.57;99952.34;5132765;27;20508;-78
2021/07/28 05:52:05;;;;;;;13.90;9.30;;;;;;;23.62;50.75;99952.72;5115711;27;20127;-77
2021/07/28 05:54:34;;;;;;;14.15;9.20;;;;;;;23.55;50.91;99962.00;5117886;27;20070;-76
2021/07/28 05:57:00;;;;;;;12.90;8.52;;;;;;;23.29;51.03;99949.34;5139215;27;20050;-80
2021/07/28 05:59:27;;;;;;;14.50;8.82;;;;;;;23.21;51.61;99954.25;5102880;27;20035;-79
2021/07/28 06:01:53;;;;;;;16.88;8.55;;;;;;;23.11;52.07;99959.22;5084188;27;20039;-77
2021/07/28 06:04:18;;;;;;;12.07;8.25;;;;;;;22.93;52.30;99944.38;5099483;27;20035;-79
2021/07/28 06:06:44;;;;;;;9.52;7.28;;;;;;;22.92;53.11;99964.78;5099186;27;20045;-77
2021/07/28 06:09:10;;;;;;;12.05;7.13;;;;;;;22.83;53.40;99963.50;5134304;27;20039;-79
2021/07/28 06:11:36;;;;;;;9.65;6.80;;;;;;;22.75;53.73;99959.56;5115201;27;20062;-78
2021/07/28 06:14:02;;;;;;;10.32;7.20;;;;;;;22.64;54.37;99963.69;5115068;27;20035;-77
2021/07/28 06:16:28;;;;;;;11.07;7.50;;;;;;;22.60;54.40;99963.97;5114981;27;20042;-75
2021/07/28 06:18:55;;;;;;;9.57;6.57;;;;;;;22.51;55.10;99960.03;5130687;27;20456;-77
2021/07/28 06:21:21;;;;;;;7.53;6.72;;;;;;;22.52;55.33;99975.84;5118968;27;20037;-78
2021/07/28 06:23:48;;;;;;;8.20;6.60;;;;;;;22.42;55.28;99961.34;5136125;27;20042;-76
2021/07/28 06:26:14;;;;;;;8.23;6.72;;;;;;;22.41;55.47;99971.09;5139994;27;20053;-76
2021/07/28 06:28:40;;;;;;;8.30;6.75;;;;;;;22.38;55.86;99962.47;5115454;27;20088;-79
2021/07/28 06:31:05;;;;;;;10.40;7.15;;;;;;;22.24;55.95;99952.63;5133448;27;20046;-77
2021/07/28 06:33:31;;;;;;;8.80;6.35;;;;;;;22.33;56.42;99968.00;5133520;27;20043;-77
2021/07/28 06:35:57;;;;;;;10.15;6.60;;;;;;;22.29;56.59;99955.03;5115637;27;20050;-77
2021/07/28 06:38:23;;;;;;;8.75;6.63;;;;;;;22.18;56.71;99952.97;5100533;27;20057;-78
2021/07/28 06:40:49;;;;;;;9.75;6.63;;;;;;;22.17;56.75;99957.44;5110566;27;20106;-77
2021/07/28 06:43:15;;;;;;;11.95;7.32;;;;;;;22.16;56.96;99960.16;5135426;27;20419;-79
2021/07/28 06:45:41;;;;;;;13.18;7.22;;;;;;;22.03;57.00;99946.72;5133507;27;20103;-77
2021/07/28 06:48:08;;;;;;;13.00;7.40;;;;;;;22.06;57.24;99952.72;5125910;27;20050;-78
2021/07/28 06:50:34;;;;;;;8.77;6.55;;;;;;;22.09;57.91;99970.22;5134984;27;20087;-77
2021/07/28 06:53:00;;;;;;;9.15;6.60;;;;;;;22.03;58.22;99967.91;5135058;27;20419;-78
2021/07/28 06:55:28;;;;;;;8.50;6.63;;;;;;;22.05;58.71;99979.28;5117816;27;20526;-78
2021/07/28 06:57:53;;;;;;;10.60;6.63;;;;;;;21.99;59.01;99974.28;5153430;27;20050;-77
2021/07/28 07:00:19;;;;;;;11.80;6.97;;;;;;;21.83;59.19;99959.25;5135038;27;20499;-77
2021/07/28 07:02:45;;;;;;;12.02;7.28;;;;;;;21.80;59.70;99954.09;5134667;27;20049;-77
2021/07/28 07:05:11;;;;;;;10.98;7.53;;;;;;;21.87;60.50;99971.38;5134933;27;20411;-77
2021/07/28 07:07:37;;;;;;;10.77;7.25;;;;;;;21.84;61.13;99953.00;5152550;27;20395;-80
2021/07/28 07:10:08;;;;;;;9.35;7.03;;;;;;;21.95;61.56;99955.06;5137474;27;20066;-77
2021/07/28 07:12:36;;;;;;;10.88;8.07;;;;;;;22.01;61.71;99946.81;5137037;27;20133;-78
2021/07/28 07:15:02;;;;;;;10.18;7.43;;;;;;;22.16;61.80;99953.06;5104493;27;20037;-76
2021/07/28 07:17:29;;;;;;;10.40;6.90;;;;;;;22.21;62.07;99948.34;5156242;27;20066;-77
2021/07/28 07:19:56;;;;;;;8.68;6.95;;;;;;;22.31;61.91;99947.84;5134431;27;20034;-78
2021/07/28 07:22:21;;;;;;;9.52;7.72;;;;;;;22.36;62.23;99951.09;5134816;27;20507;-79
2021/07/28 07:24:47;;;;;;;11.30;8.20;;;;;;;22.46;62.50;99946.19;5132855;27;20125;-80
2021/07/28 07:27:14;;;;;;;10.25;7.32;;;;;;;22.63;62.79;99953.16;5110200;28;20509;-78
2021/07/28 07:29:40;;;;;;;9.10;7.10;;;;;;;22.69;63.07;99956.34;5111926;28;20044;-78
2021/07/28 07:32:08;;;;;;;9.48;6.90;;;;;;;22.71;63.35;99951.81;5112551;28;20067;-78
2021/07/28 07:34:37;;;;;;;10.25;6.82;;;;;;;22.65;62.97;99944.19;5112188;28;20035;-77
2021/07/28 07:37:03;;;;;;;12.65;7.78;;;;;;;22.68;62.59;99962.56;5111571;28;20062;-77
2021/07/28 07:39:32;;;;;;;10.43;7.25;;;;;;;22.48;62.35;99954.91;5111293;28;20047;-77
2021/07/28 07:41:58;;;;;;;7.55;6.75;;;;;;;22.45;62.85;99961.22;5112630;28;20047;-79
2021/07/28 07:44:24;;;;;;;13.25;7.25;;;;;;;22.33;62.80;99954.75;5111201;28;20048;-76
2021/07/28 07:46:49;;;;;;;9.90;7.07;;;;;;;22.29;63.74;99970.94;5118091;28;20420;-76
2021/07/28 07:49:15;;;;;;;9.10;7.03;;;;;;;22.19;63.80;99946.72;5114924;28;20040;-75
2021/07/28 07:51:41;;;;;;;13.50;7.80;;;;;;;22.29;63.39;99944.44;5092913;28;20137;-78
2021/07/28 07:54:07;;;;;;;10.80;8.45;;;;;;;22.27;63.98;99936.56;5112091;28;20035;-78
2021/07/28 07:56:33;;;;;;;10.35;8.02;;;;;;;22.46;64.14;99940.88;5112108;28;20048;-76
2021/07/28 07:58:58;;;;;;;10.35;7.72;;;;;;;22.69;63.73;99947.50;5110175;28;20849;-79
2021/07/28 08:01:24;;;;;;;8.65;7.75;;;;;;;22.66;63.20;99948.56;5112178;28;20039;-78
2021/07/28 08:03:50;;;;;;;10.75;8.23;;;;;;;22.61;63.75;99937.34;5115740;28;20043;-76
2021/07/28 08:06:16;;;;;;;11.07;7.72;;;;;;;22.73;63.74;99953.50;5090792;28;20163;-76
2021/07/28 08:08:42;;;;;;;10.02;7.60;;;;;;;22.66;63.95;99934.41;5094291;28;20126;-80
2021/07/28 08:11:12;;;;;;;11.70;8.68;;;;;;;22.61;63.50;99944.47;5113777;28;20132;-76
2021/07/28 08:13:38;;;;;;;11.52;8.20;;;;;;;22.52;63.90;99944.03;5113745;28;20124;-76
2021/07/28 08:16:18;;;;;;;9.65;8.40;;;;;;;22.55;64.77;99937.69;5097104;28;20047;-78
2021/07/28 08:18:46;;;;;;;13.02;9.25;;;;;;;22.62;64.39;99920.50;5097403;28;20042;-79
2021/07/28 08:21:13;;;;;;;10.63;8.35;;;;;;;22.85;64.75;99932.41;5098028;28;20044;-77
2021/07/28 08:23:40;;;;;;;10.60;8.90;;;;;;;23.01;64.63;99927.06;5117153;28;20047;-76
2021/07/28 08:26:07;;;;;;;9.43;8.10;;;;;;;23.13;64.51;99920.19;5102933;28;20051;-78
2021/07/28 08:28:32;;;;;;;11.65;8.70;;;;;;;23.19;64.42;99921.59;5132789;27;20084;-79
2021/07/28 08:30:58;;;;;;;10.57;8.73;;;;;;;23.18;64.35;99917.25;5119169;27;20410;-78
2021/07/28 08:33:26;;;;;;;14.40;8.77;;;;;;;23.16;64.17;99924.47;5122379;27;20045;-78
2021/07/28 08:36:12;;;;;;;13.98;9.48;;;;;;;23.11;64.15;99911.44;5121115;27;20077;-79
2021/07/28 08:38:38;;;;;;;9.88;8.88;;;;;;;23.18;63.88;99927.84;5148661;27;20038;-78
2021/07/28 08:41:04;;;;;;;13.40;9.38;;;;;;;23.14;64.23;99927.19;5138823;27;20129;-79
2021/07/28 08:43:35;;;;;;;17.85;10.50;;;;;;;23.11;63.98;99916.75;5139016;27;20045;-79
2021/07/28 08:46:03;;;;;;;15.05;10.38;;;;;;;23.29;64.11;99921.94;5158646;27;20038;-77
2021/07/28 08:48:30;;;;;;;12.10;10.18;;;;;;;23.37;63.90;99903.75;5139007;27;20053;-77
2021/07/28 08:50:59;;;;;;;16.88;14.85;;;;;;;23.64;63.81;99920.75;5150122;27;20066;-78
2021/07/28 08:53:27;;;;;;;11.73;9.57;;;;;;;23.63;63.22;99922.56;5146832;27;20071;-79
2021/07/28 08:56:02;;;;;;;13.25;8.10;;;;;;;23.68;63.40;99915.16;5155257;27;20068;-78
2021/07/28 08:58:29;;;;;;;11.38;7.88;;;;;;;23.79;63.36;99906.53;5116965;27;20070;-79
2021/07/28 09:00:55;;;;;;;22.15;8.80;;;;;;;23.86;63.23;99904.34;5116099;27;20102;-78
2021/07/28 09:03:21;;;;;;;13.00;10.25;;;;;;;23.84;63.00;99900.91;5116260;27;20557;-78
2021/07/28 09:05:50;;;;;;;11.77;9.02;;;;;;;23.80;62.63;99910.03;5099293;27;20039;-79
2021/07/28 09:08:23;;;;;;;12.90;9.20;;;;;;;23.67;62.22;99897.53;5128124;27;20102;-77
2021/07/28 09:10:58;;;;;;;11.13;9.52;;;;;;;23.67;62.13;99920.56;5155829;27;20066;-77
2021/07/28 09:13:35;;;;;;;11.07;8.57;;;;;;;23.59;62.51;99926.34;5136952;27;20038;-80
2021/07/28 09:16:13;;;;;;;13.77;9.63;;;;;;;23.36;62.74;99914.47;5137673;27;20129;-78
2021/07/28 09:18:51;;;;;;;12.38;8.23;;;;;;;23.07;63.97;99920.53;5137485;27;20043;-78
2021/07/28 09:21:20;;;;;;;11.45;8.60;;;;;;;23.00;64.29;99919.22;5138225;27;20129;-79
2021/07/28 09:23:48;;;;;;;10.07;8.55;;;;;;;22.94;64.72;99920.44;5137102;27;20042;-78
2021/07/28 09:26:42;;;;;;;14.63;10.15;;;;;;;22.82;64.92;99937.91;5136777;27;20040;-79
2021/07/28 09:29:17;;;;;;;13.07;10.30;;;;;;;22.69;65.29;99931.59;5137731;27;20045;-80
2021/07/28 09:31:46;;;;;;;16.83;14.23;;;;;;;22.62;65.65;99930.25;5155750;27;20050;-79
2021/07/28 09:34:21;;;;;;;16.08;10.45;;;;;;;22.58;65.61;99940.16;5155854;27;20107;-78
2021/07/28 09:36:58;;;;;;;15.68;11.77;;;;;;;22.44;66.33;99924.19;5119733;27;20038;-80
2021/07/28 09:39:25;;;;;;;11.60;10.07;;;;;;;22.54;66.30;99936.84;5155865;27;20049;-80
2021/07/28 09:41:53;;;;;;;9.73;8.73;;;;;;;22.43;66.60;99931.28;5119367;27;20038;-78
2021/07/28 09:44:32;;;;;;;10.13;9.07;;;;;;;22.40;66.73;99939.38;5154825;27;20046;-79
2021/07/28 09:47:14;;;;;;;12.73;11.43;;;;;;;22.35;66.46;99938.78;5119696;27;20038;-79
2021/07/28 09:49:43;;;;;;;14.15;11.88;;;;;;;22.11;67.09;99918.00;5119212;27;20038;-78
2021/07/28 09:52:21;;;;;;;12.65;11.30;;;;;;;22.03;68.43;99938.75;5120199;27;20087;-79
2021/07/28 09:54:49;;;;;;;12.93;11.63;;;;;;;21.90;68.31;99923.56;5138038;27;20039;-80
2021/07/28 09:57:20;;;;;;;12.65;7.72;;;;;;;21.72;68.59;99930.69;5103647;27;20034;-79
2021/07/28 09:59:53;;;;;;;16.17;8.10;;;;;;;21.28;68.65;99905.59;5126224;27;20053;-79
2021/07/28 10:02:41;;;;;;;9.15;8.15;;;;;;;21.00;68.66;99906.13;5123017;27;20178;-83
2021/07/28 10:05:09;;;;;;;11.82;8.48;;;;;;;20.97;68.70;99927.44;5136172;27;20039;-79
2021/07/28 10:07:36;;;;;;;14.38;9.02;;;;;;;20.73;69.05;99925.09;5098471;27;20050;-79
2021/07/28 10:10:10;;;;;;;12.52;9.15;;;;;;;20.56;70.19;99917.97;5134277;27;20047;-80
2021/07/28 10:12:38;;;;;;;9.93;8.93;;;;;;;20.57;71.04;99899.38;5098661;27;20111;-80
2021/07/28 10:15:08;;;;;;;10.75;8.52;;;;;;;20.79;71.09;99913.38;5133037;27;20127;-79
2021/07/28 10:17:38;;;;;;;11.38;9.10;;;;;;;20.81;71.26;99900.94;5119452;27;20041;-79
2021/07/28 10:20:04;;;;;;;12.00;8.95;;;;;;;20.91;71.13;99913.63;5138339;27;20027;-80
2021/07/28 10:22:32;;;;;;;9.13;8.05;;;;;;;21.13;72.02;99912.53;5116998;27;20067;-84
2021/07/28 10:24:58;;;;;;;8.95;7.80;;;;;;;21.13;71.59;99874.63;5139114;27;20068;-79
2021/07/28 10:27:25;;;;;;;8.98;7.65;;;;;;;21.32;71.28;99880.66;5157609;27;20081;-80
2021/07/28 10:29:51;;;;;;;8.73;7.75;;;;;;;21.41;70.64;99894.34;5138262;27;20418;-79
2021/07/28 10:32:35;;;;;;;11.50;7.45;;;;;;;21.39;70.64;99883.88;5137629;27;20045;-79
2021/07/28 10:35:17;;;;;;;9.13;7.15;;;;;;;21.50;70.38;99893.88;5120848;27;20057;-81
2021/07/28 10:37:43;;;;;;;9.32;8.38;;;;;;;21.55;70.23;99891.00;5155336;27;20042;-80
2021/07/28 10:41:00;;;;;;;8.48;7.55;;;;;;;21.74;69.23;99898.81;5119492;27;20035;-80
2021/07/28 10:43:26;;;;;;;8.43;7.28;;;;;;;21.59;69.16;99866.91;5122213;27;20079;-79
2021/07/28 10:45:57;;;;;;;8.93;7.70;;;;;;;21.59;68.43;99871.38;5135451;27;20067;-79
2021/07/28 10:48:41;;;;;;;9.10;7.90;;;;;;;21.81;69.65;99884.31;5157176;27;20031;-80
2021/07/28 10:51:07;;;;;;;7.78;6.75;;;;;;;21.66;68.31;99857.75;5125065;27;20042;-79
2021/07/28 10:53:47;;;;;;;7.60;6.07;;;;;;;21.70;68.65;99876.09;5152133;27;20697;-78
2021/07/28 10:56:12;;;;;;;9.00;7.05;;;;;;;21.74;68.81;99865.25;5148542;27;20050;-78
2021/07/28 10:58:38;;;;;;;7.80;7.00;;;;;;;22.01;68.47;99879.72;5154884;27;20039;-79
2021/07/28 11:01:06;;;;;;;6.95;6.25;;;;;;;22.12;67.57;99864.09;5136395;27;20038;-78
2021/07/28 11:03:33;;;;;;;6.85;5.93;;;;;;;22.10;68.18;99855.38;5135602;27;20083;-78
2021/07/28 11:06:22;;;;;;;6.70;6.03;;;;;;;22.31;67.48;99871.00;5138592;27;20444;-78
2021/07/28 11:08:48;;;;;;;7.28;6.20;;;;;;;22.14;66.61;99864.00;5124946;27;20403;-79
2021/07/28 11:11:22;;;;;;;8.00;5.85;;;;;;;22.01;66.45;99840.84;5152578;27;20046;-78
2021/07/28 11:13:50;;;;;;;6.70;6.03;;;;;;;22.01;65.76;99839.97;5117744;27;20034;-79
2021/07/28 11:16:16;;;;;;;7.60;6.70;;;;;;;21.96;65.78;99832.28;5135542;27;20499;-78
2021/07/28 11:18:43;;;;;;;8.90;7.30;;;;;;;21.97;65.36;99852.53;5134544;27;20035;-79
2021/07/28 11:21:18;;;;;;;7.78;7.00;;;;;;;22.03;66.71;99852.22;5135185;27;20042;-80
2021/07/28 11:24:05;;;;;;;10.27;7.35;;;;;;;22.01;66.05;99834.69;5135697;27;20049;-80
2021/07/28 11:26:33;;;;;;;9.43;7.95;;;;;;;22.37;66.98;99828.25;5102840;27;20456;-80
2021/07/28 11:29:07;;;;;;;10.02;8.13;;;;;;;22.45;66.04;99818.06;5098832;27;20507;-78
2021/07/28 11:31:44;;;;;;;12.90;11.32;;;;;;;22.40;65.40;99828.91;5115294;27;20038;-78
2021/07/28 11:34:14;;;;;;;13.68;9.32;;;;;;;22.16;65.80;99811.75;5115227;27;20587;-79